sensor_id;sensor_type;location;lat;lon;timestamp;temperature;humidity
66053;HTU21D;52833;45.112;39.556;2022-08-01T04:12:52;28.72;57.39
66053;HTU21D;52833;45.112;39.556;2022-08-01T04:15:19;28.73;57.26
66053;HTU21D;52833;45.112;39.556;2022-08-01T04:17:49;28.71;57.06
66053;HTU21D;52833;45.112;39.556;2022-08-01T04:20:16;28.68;57.03
66053;HTU21D;52833;45.112;39.556;2022-08-01T04:22:43;28.68;57.04
66053;HTU21D;52833;45.112;39.556;2022-08-01T04:25:17;28.70;56.97
66053;HTU21D;52833;45.112;39.556;2022-08-01T04:27:49;28.67;56.68
66053;HTU21D;52833;45.112;39.556;2022-08-01T04:30:19;28.60;56.74
66053;HTU21D;52833;45.112;39.556;2022-08-01T04:32:48;28.54;56.62
66053;HTU21D;52833;45.112;39.556;2022-08-01T04:35:19;28.50;56.56
66053;HTU21D;52833;45.112;39.556;2022-08-01T04:37:48;28.49;56.59
66053;HTU21D;52833;45.112;39.556;2022-08-01T04:40:17;28.55;56.66
66053;HTU21D;52833;45.112;39.556;2022-08-01T04:42:46;28.61;56.52
66053;HTU21D;52833;45.112;39.556;2022-08-01T04:45:15;28.67;56.26
66053;HTU21D;52833;45.112;39.556;2022-08-01T04:47:43;28.72;56.11
66053;HTU21D;52833;45.112;39.556;2022-08-01T04:50:12;28.80;55.85
66053;HTU21D;52833;45.112;39.556;2022-08-01T04:52:39;28.91;55.70
66053;HTU21D;52833;45.112;39.556;2022-08-01T04:55:09;29.05;55.61
66053;HTU21D;52833;45.112;39.556;2022-08-01T04:57:39;29.20;55.35
66053;HTU21D;52833;45.112;39.556;2022-08-01T05:00:07;29.31;54.76
66053;HTU21D;52833;45.112;39.556;2022-08-01T05:02:34;29.31;54.38
66053;HTU21D;52833;45.112;39.556;2022-08-01T05:05:00;29.33;54.52
66053;HTU21D;52833;45.112;39.556;2022-08-01T05:07:27;29.43;54.52
66053;HTU21D;52833;45.112;39.556;2022-08-01T05:09:54;29.51;53.94
66053;HTU21D;52833;45.112;39.556;2022-08-01T05:12:21;29.57;53.80
66053;HTU21D;52833;45.112;39.556;2022-08-01T05:14:47;29.62;53.68
66053;HTU21D;52833;45.112;39.556;2022-08-01T05:17:14;29.72;53.43
66053;HTU21D;52833;45.112;39.556;2022-08-01T05:19:40;29.76;53.30
66053;HTU21D;52833;45.112;39.556;2022-08-01T05:22:10;29.80;53.25
66053;HTU21D;52833;45.112;39.556;2022-08-01T05:24:38;29.89;53.43
66053;HTU21D;52833;45.112;39.556;2022-08-01T05:27:05;30.01;53.06
66053;HTU21D;52833;45.112;39.556;2022-08-01T05:29:35;30.05;52.91
66053;HTU21D;52833;45.112;39.556;2022-08-01T05:32:02;30.10;52.93
66053;HTU21D;52833;45.112;39.556;2022-08-01T05:34:29;30.18;52.59
66053;HTU21D;52833;45.112;39.556;2022-08-01T05:36:55;30.25;52.19
66053;HTU21D;52833;45.112;39.556;2022-08-01T05:39:22;30.33;51.84
66053;HTU21D;52833;45.112;39.556;2022-08-01T05:41:49;30.38;51.72
66053;HTU21D;52833;45.112;39.556;2022-08-01T05:44:16;30.48;51.50
66053;HTU21D;52833;45.112;39.556;2022-08-01T05:46:43;30.59;51.30
66053;HTU21D;52833;45.112;39.556;2022-08-01T05:49:09;30.71;50.97
66053;HTU21D;52833;45.112;39.556;2022-08-01T05:51:36;30.85;50.72
66053;HTU21D;52833;45.112;39.556;2022-08-01T05:54:03;30.92;50.28
66053;HTU21D;52833;45.112;39.556;2022-08-01T05:56:29;30.87;50.24
66053;HTU21D;52833;45.112;39.556;2022-08-01T05:58:56;30.85;50.23
66053;HTU21D;52833;45.112;39.556;2022-08-01T06:01:23;30.86;50.38
66053;HTU21D;52833;45.112;39.556;2022-08-01T06:03:49;30.94;49.95
66053;HTU21D;52833;45.112;39.556;2022-08-01T06:06:16;30.98;49.77
66053;HTU21D;52833;45.112;39.556;2022-08-01T06:08:42;31.01;49.58
66053;HTU21D;52833;45.112;39.556;2022-08-01T06:11:09;31.04;49.64
66053;HTU21D;52833;45.112;39.556;2022-08-01T06:13:35;31.14;49.60
66053;HTU21D;52833;45.112;39.556;2022-08-01T06:16:02;31.24;49.61
66053;HTU21D;52833;45.112;39.556;2022-08-01T06:18:29;31.37;49.28
66053;HTU21D;52833;45.112;39.556;2022-08-01T06:20:55;31.49;49.10
66053;HTU21D;52833;45.112;39.556;2022-08-01T06:23:22;31.60;49.05
66053;HTU21D;52833;45.112;39.556;2022-08-01T06:25:52;31.78;48.53
66053;HTU21D;52833;45.112;39.556;2022-08-01T06:28:21;31.89;48.18
66053;HTU21D;52833;45.112;39.556;2022-08-01T07:16:32;34.37;44.16
66053;HTU21D;52833;45.112;39.556;2022-08-01T07:18:59;34.47;44.08
66053;HTU21D;52833;45.112;39.556;2022-08-01T07:21:26;34.59;44.08
66053;HTU21D;52833;45.112;39.556;2022-08-01T07:23:52;34.70;43.78
66053;HTU21D;52833;45.112;39.556;2022-08-01T07:26:19;34.77;44.03
66053;HTU21D;52833;45.112;39.556;2022-08-01T07:28:46;34.89;43.59
66053;HTU21D;52833;45.112;39.556;2022-08-01T07:31:12;34.99;43.81
66053;HTU21D;52833;45.112;39.556;2022-08-01T07:33:39;35.13;43.61
66053;HTU21D;52833;45.112;39.556;2022-08-01T07:36:05;35.29;43.19
66053;HTU21D;52833;45.112;39.556;2022-08-01T07:38:32;35.48;42.29
66053;HTU21D;52833;45.112;39.556;2022-08-01T07:40:58;35.64;42.32
66053;HTU21D;52833;45.112;39.556;2022-08-01T07:43:25;35.80;42.23
66053;HTU21D;52833;45.112;39.556;2022-08-01T07:45:52;35.95;41.76
66053;HTU21D;52833;45.112;39.556;2022-08-01T07:48:18;36.09;41.65
66053;HTU21D;52833;45.112;39.556;2022-08-01T07:50:47;36.23;41.52
66053;HTU21D;52833;45.112;39.556;2022-08-01T07:53:13;36.38;41.37
66053;HTU21D;52833;45.112;39.556;2022-08-01T07:55:40;36.53;41.26
66053;HTU21D;52833;45.112;39.556;2022-08-01T07:58:07;36.68;41.05
66053;HTU21D;52833;45.112;39.556;2022-08-01T08:00:33;36.82;40.31
66053;HTU21D;52833;45.112;39.556;2022-08-01T08:03:00;36.93;39.72
66053;HTU21D;52833;45.112;39.556;2022-08-01T08:05:27;37.04;39.75
66053;HTU21D;52833;45.112;39.556;2022-08-01T08:07:54;37.19;39.54
66053;HTU21D;52833;45.112;39.556;2022-08-01T08:10:24;37.26;39.67
66053;HTU21D;52833;45.112;39.556;2022-08-01T08:12:51;37.33;39.38
66053;HTU21D;52833;45.112;39.556;2022-08-01T08:19:49;37.65;39.15
66053;HTU21D;52833;45.112;39.556;2022-08-01T08:22:15;37.78;38.80
66053;HTU21D;52833;45.112;39.556;2022-08-01T08:24:42;37.90;38.48
66053;HTU21D;52833;45.112;39.556;2022-08-01T08:27:10;38.04;38.60
66053;HTU21D;52833;45.112;39.556;2022-08-01T08:29:38;38.17;38.27
66053;HTU21D;52833;45.112;39.556;2022-08-01T08:32:05;38.31;38.33
66053;HTU21D;52833;45.112;39.556;2022-08-01T08:34:31;38.43;37.98
66053;HTU21D;52833;45.112;39.556;2022-08-01T08:36:58;38.47;37.47
66053;HTU21D;52833;45.112;39.556;2022-08-01T08:39:26;38.43;37.27
66053;HTU21D;52833;45.112;39.556;2022-08-01T08:41:59;38.37;36.98
66053;HTU21D;52833;45.112;39.556;2022-08-01T08:44:25;38.30;37.03
66053;HTU21D;52833;45.112;39.556;2022-08-01T08:46:52;38.24;36.91
66053;HTU21D;52833;45.112;39.556;2022-08-01T08:49:21;38.23;36.70
66053;HTU21D;52833;45.112;39.556;2022-08-01T08:51:50;38.19;36.63
66053;HTU21D;52833;45.112;39.556;2022-08-01T08:54:21;38.15;36.52
66053;HTU21D;52833;45.112;39.556;2022-08-01T08:56:49;38.16;36.73
66053;HTU21D;52833;45.112;39.556;2022-08-01T08:59:16;38.25;36.63
66053;HTU21D;52833;45.112;39.556;2022-08-01T09:01:44;38.37;36.85
66053;HTU21D;52833;45.112;39.556;2022-08-01T09:04:12;38.51;36.47
66053;HTU21D;52833;45.112;39.556;2022-08-01T09:06:39;38.51;36.13
66053;HTU21D;52833;45.112;39.556;2022-08-01T09:09:07;38.49;35.64
66053;HTU21D;52833;45.112;39.556;2022-08-01T09:11:35;38.48;35.59
66053;HTU21D;52833;45.112;39.556;2022-08-01T09:16:33;38.63;35.22
66053;HTU21D;52833;45.112;39.556;2022-08-01T09:19:15;38.65;35.36
66053;HTU21D;52833;45.112;39.556;2022-08-01T09:21:59;38.73;35.10
66053;HTU21D;52833;45.112;39.556;2022-08-01T09:24:28;38.81;34.96
66053;HTU21D;52833;45.112;39.556;2022-08-01T09:26:55;38.89;35.02
66053;HTU21D;52833;45.112;39.556;2022-08-01T09:29:25;38.97;34.58
66053;HTU21D;52833;45.112;39.556;2022-08-01T09:31:51;39.02;34.77
66053;HTU21D;52833;45.112;39.556;2022-08-01T09:34:30;39.02;34.66
66053;HTU21D;52833;45.112;39.556;2022-08-01T09:37:01;39.07;34.73
66053;HTU21D;52833;45.112;39.556;2022-08-01T09:39:31;39.17;34.47
66053;HTU21D;52833;45.112;39.556;2022-08-01T09:42:00;39.33;34.33
66053;HTU21D;52833;45.112;39.556;2022-08-01T09:44:41;39.43;33.86
66053;HTU21D;52833;45.112;39.556;2022-08-01T09:47:08;39.53;33.17
66053;HTU21D;52833;45.112;39.556;2022-08-01T09:49:37;39.47;32.96
66053;HTU21D;52833;45.112;39.556;2022-08-01T09:54:52;39.41;33.10
66053;HTU21D;52833;45.112;39.556;2022-08-01T09:57:19;39.43;32.85
66053;HTU21D;52833;45.112;39.556;2022-08-01T09:59:48;39.34;32.70
66053;HTU21D;52833;45.112;39.556;2022-08-01T10:02:38;39.14;32.94
66053;HTU21D;52833;45.112;39.556;2022-08-01T10:05:10;39.07;33.24
66053;HTU21D;52833;45.112;39.556;2022-08-01T10:07:58;39.13;33.30
66053;HTU21D;52833;45.112;39.556;2022-08-01T10:10:25;39.24;33.26
66053;HTU21D;52833;45.112;39.556;2022-08-01T10:12:56;39.36;33.29
66053;HTU21D;52833;45.112;39.556;2022-08-01T10:15:24;39.47;33.24
66053;HTU21D;52833;45.112;39.556;2022-08-01T10:17:59;39.61;33.55
66053;HTU21D;52833;45.112;39.556;2022-08-01T10:20:28;39.76;33.16
66053;HTU21D;52833;45.112;39.556;2022-08-01T10:22:59;39.86;32.87
66053;HTU21D;52833;45.112;39.556;2022-08-01T10:25:28;39.86;32.49
66053;HTU21D;52833;45.112;39.556;2022-08-01T10:27:56;39.84;32.55
66053;HTU21D;52833;45.112;39.556;2022-08-01T10:30:25;39.86;32.22
66053;HTU21D;52833;45.112;39.556;2022-08-01T10:32:52;39.87;32.31
66053;HTU21D;52833;45.112;39.556;2022-08-01T10:35:20;39.89;32.25
66053;HTU21D;52833;45.112;39.556;2022-08-01T10:37:47;39.92;32.32
66053;HTU21D;52833;45.112;39.556;2022-08-01T10:40:16;39.96;32.33
66053;HTU21D;52833;45.112;39.556;2022-08-01T10:42:44;39.98;31.95
66053;HTU21D;52833;45.112;39.556;2022-08-01T10:45:14;39.98;31.96
66053;HTU21D;52833;45.112;39.556;2022-08-01T10:47:51;39.99;32.23
66053;HTU21D;52833;45.112;39.556;2022-08-01T10:53:17;40.06;32.09
66053;HTU21D;52833;45.112;39.556;2022-08-01T10:56:04;40.03;32.35
66053;HTU21D;52833;45.112;39.556;2022-08-01T10:58:37;39.97;32.15
66053;HTU21D;52833;45.112;39.556;2022-08-01T11:01:27;39.93;32.21
66053;HTU21D;52833;45.112;39.556;2022-08-01T11:09:04;39.85;32.31
66053;HTU21D;52833;45.112;39.556;2022-08-01T11:11:31;39.85;32.39
66053;HTU21D;52833;45.112;39.556;2022-08-01T11:14:05;39.85;32.54
66053;HTU21D;52833;45.112;39.556;2022-08-01T11:16:40;39.86;32.70
66053;HTU21D;52833;45.112;39.556;2022-08-01T11:19:08;39.91;32.85
66053;HTU21D;52833;45.112;39.556;2022-08-01T11:27:25;40.03;32.85
66053;HTU21D;52833;45.112;39.556;2022-08-01T11:32:47;40.19;32.70
66053;HTU21D;52833;45.112;39.556;2022-08-01T11:35:15;40.28;32.51
66053;HTU21D;52833;45.112;39.556;2022-08-01T11:37:42;40.37;32.35
66053;HTU21D;52833;45.112;39.556;2022-08-01T11:40:24;40.41;32.42
66053;HTU21D;52833;45.112;39.556;2022-08-01T11:43:18;40.44;32.38
66053;HTU21D;52833;45.112;39.556;2022-08-01T11:45:53;40.42;32.38
66053;HTU21D;52833;45.112;39.556;2022-08-01T11:48:25;40.37;32.41
66053;HTU21D;52833;45.112;39.556;2022-08-01T11:50:54;40.29;32.66
66053;HTU21D;52833;45.112;39.556;2022-08-01T11:53:21;40.22;32.41
66053;HTU21D;52833;45.112;39.556;2022-08-01T11:55:53;40.02;32.48
66053;HTU21D;52833;45.112;39.556;2022-08-01T11:58:25;39.86;32.73
66053;HTU21D;52833;45.112;39.556;2022-08-01T12:00:57;39.71;32.92
66053;HTU21D;52833;45.112;39.556;2022-08-01T12:03:29;39.57;33.30
66053;HTU21D;52833;45.112;39.556;2022-08-01T12:05:56;39.50;33.41
66053;HTU21D;52833;45.112;39.556;2022-08-01T12:08:29;39.43;33.50
66053;HTU21D;52833;45.112;39.556;2022-08-01T12:11:00;39.33;33.66
66053;HTU21D;52833;45.112;39.556;2022-08-01T12:13:29;39.19;33.70
66053;HTU21D;52833;45.112;39.556;2022-08-01T12:16:09;39.02;34.50
66053;HTU21D;52833;45.112;39.556;2022-08-01T12:18:43;38.86;35.56
66053;HTU21D;52833;45.112;39.556;2022-08-01T12:21:09;38.69;36.21
66053;HTU21D;52833;45.112;39.556;2022-08-01T12:23:36;38.45;36.51
66053;HTU21D;52833;45.112;39.556;2022-08-01T12:26:02;38.22;37.02
66053;HTU21D;52833;45.112;39.556;2022-08-01T12:28:30;38.06;37.66
66053;HTU21D;52833;45.112;39.556;2022-08-01T12:31:05;37.90;37.91
66053;HTU21D;52833;45.112;39.556;2022-08-01T12:33:31;37.72;38.43
66053;HTU21D;52833;45.112;39.556;2022-08-01T12:35:58;37.58;38.97
66053;HTU21D;52833;45.112;39.556;2022-08-01T12:38:25;37.44;39.17
66053;HTU21D;52833;45.112;39.556;2022-08-01T12:40:53;37.29;39.33
66053;HTU21D;52833;45.112;39.556;2022-08-01T12:43:22;37.13;39.80
66053;HTU21D;52833;45.112;39.556;2022-08-01T12:45:53;36.95;40.14
66053;HTU21D;52833;45.112;39.556;2022-08-01T12:48:21;36.85;40.50
66053;HTU21D;52833;45.112;39.556;2022-08-01T12:50:48;36.77;40.71
66053;HTU21D;52833;45.112;39.556;2022-08-01T12:53:16;36.71;40.99
66053;HTU21D;52833;45.112;39.556;2022-08-01T12:55:50;36.66;41.36
66053;HTU21D;52833;45.112;39.556;2022-08-01T12:58:20;36.63;41.49
66053;HTU21D;52833;45.112;39.556;2022-08-01T13:00:49;36.58;41.52
66053;HTU21D;52833;45.112;39.556;2022-08-01T13:03:20;36.49;41.76
66053;HTU21D;52833;45.112;39.556;2022-08-01T13:08:20;36.22;42.38
66053;HTU21D;52833;45.112;39.556;2022-08-01T13:10:47;36.13;42.66
66053;HTU21D;52833;45.112;39.556;2022-08-01T13:13:18;36.03;43.10
66053;HTU21D;52833;45.112;39.556;2022-08-01T13:15:46;35.96;42.81
66053;HTU21D;52833;45.112;39.556;2022-08-01T13:18:28;35.82;43.30
66053;HTU21D;52833;45.112;39.556;2022-08-01T13:21:14;35.67;43.84
66053;HTU21D;52833;45.112;39.556;2022-08-01T13:24:05;35.54;44.29
66053;HTU21D;52833;45.112;39.556;2022-08-01T13:26:42;35.43;44.62
66053;HTU21D;52833;45.112;39.556;2022-08-01T13:29:11;35.35;45.03
66053;HTU21D;52833;45.112;39.556;2022-08-01T13:31:39;35.29;45.36
66053;HTU21D;52833;45.112;39.556;2022-08-01T13:34:06;35.25;45.61
66053;HTU21D;52833;45.112;39.556;2022-08-01T13:36:34;35.22;45.82
66053;HTU21D;52833;45.112;39.556;2022-08-01T13:39:01;35.19;45.82
66053;HTU21D;52833;45.112;39.556;2022-08-01T13:41:46;35.12;46.06
66053;HTU21D;52833;45.112;39.556;2022-08-01T13:44:13;35.08;46.34
66053;HTU21D;52833;45.112;39.556;2022-08-01T13:46:41;34.96;47.07
66053;HTU21D;52833;45.112;39.556;2022-08-01T13:49:10;34.77;47.76
66053;HTU21D;52833;45.112;39.556;2022-08-01T13:51:38;34.56;48.27
66053;HTU21D;52833;45.112;39.556;2022-08-01T13:54:05;34.39;49.06
66053;HTU21D;52833;45.112;39.556;2022-08-01T13:56:32;34.22;49.73
66053;HTU21D;52833;45.112;39.556;2022-08-01T13:58:58;34.05;50.39
66053;HTU21D;52833;45.112;39.556;2022-08-01T14:01:25;33.88;50.92
66053;HTU21D;52833;45.112;39.556;2022-08-01T14:03:52;33.73;51.10
66053;HTU21D;52833;45.112;39.556;2022-08-01T14:06:20;33.53;51.46
66053;HTU21D;52833;45.112;39.556;2022-08-01T14:08:48;33.33;51.77
66053;HTU21D;52833;45.112;39.556;2022-08-01T14:11:16;33.16;52.14
66053;HTU21D;52833;45.112;39.556;2022-08-01T14:13:42;32.98;52.41
66053;HTU21D;52833;45.112;39.556;2022-08-01T14:16:34;32.77;51.89
66053;HTU21D;52833;45.112;39.556;2022-08-01T14:19:20;32.62;52.48
66053;HTU21D;52833;45.112;39.556;2022-08-01T14:21:47;32.47;53.06
66053;HTU21D;52833;45.112;39.556;2022-08-01T14:24:13;32.33;53.43
66053;HTU21D;52833;45.112;39.556;2022-08-01T14:26:40;32.17;53.88
66053;HTU21D;52833;45.112;39.556;2022-08-01T14:29:07;32.00;54.17
66053;HTU21D;52833;45.112;39.556;2022-08-01T14:31:33;31.84;54.40
66053;HTU21D;52833;45.112;39.556;2022-08-01T14:34:00;31.72;54.66
66053;HTU21D;52833;45.112;39.556;2022-08-01T14:36:27;31.58;54.92
66053;HTU21D;52833;45.112;39.556;2022-08-01T14:38:54;31.45;55.07
66053;HTU21D;52833;45.112;39.556;2022-08-01T14:41:20;31.35;55.29
66053;HTU21D;52833;45.112;39.556;2022-08-01T14:43:46;31.21;55.61
66053;HTU21D;52833;45.112;39.556;2022-08-01T14:46:13;31.11;56.08
66053;HTU21D;52833;45.112;39.556;2022-08-01T14:48:40;31.00;56.55
66053;HTU21D;52833;45.112;39.556;2022-08-01T14:51:08;30.90;56.77
66053;HTU21D;52833;45.112;39.556;2022-08-01T14:53:34;30.80;56.99
66053;HTU21D;52833;45.112;39.556;2022-08-01T14:56:03;30.69;57.10
66053;HTU21D;52833;45.112;39.556;2022-08-01T14:58:30;30.60;57.13
66053;HTU21D;52833;45.112;39.556;2022-08-01T15:01:00;30.51;57.22
66053;HTU21D;52833;45.112;39.556;2022-08-01T15:03:27;30.42;57.37
66053;HTU21D;52833;45.112;39.556;2022-08-01T15:05:53;30.33;57.80
66053;HTU21D;52833;45.112;39.556;2022-08-01T15:08:20;30.22;58.13
66053;HTU21D;52833;45.112;39.556;2022-08-01T15:10:47;30.12;58.52
66053;HTU21D;52833;45.112;39.556;2022-08-01T15:13:14;30.01;58.74
66053;HTU21D;52833;45.112;39.556;2022-08-01T15:15:40;29.88;59.17
66053;HTU21D;52833;45.112;39.556;2022-08-01T15:18:07;29.75;59.43
66053;HTU21D;52833;45.112;39.556;2022-08-01T15:20:34;29.60;59.72
66053;HTU21D;52833;45.112;39.556;2022-08-01T15:23:00;29.42;59.98
66053;HTU21D;52833;45.112;39.556;2022-08-01T15:25:27;29.29;60.32
66053;HTU21D;52833;45.112;39.556;2022-08-01T15:27:56;29.16;60.56
66053;HTU21D;52833;45.112;39.556;2022-08-01T15:30:23;29.00;60.82
66053;HTU21D;52833;45.112;39.556;2022-08-01T15:32:50;28.87;61.09
66053;HTU21D;52833;45.112;39.556;2022-08-01T15:35:17;28.77;61.24
66053;HTU21D;52833;45.112;39.556;2022-08-01T15:37:44;28.64;61.63
66053;HTU21D;52833;45.112;39.556;2022-08-01T15:40:11;28.57;61.82
66053;HTU21D;52833;45.112;39.556;2022-08-01T15:42:38;28.49;62.08
66053;HTU21D;52833;45.112;39.556;2022-08-01T15:45:08;28.41;62.47
66053;HTU21D;52833;45.112;39.556;2022-08-01T15:47:35;28.34;62.54
66053;HTU21D;52833;45.112;39.556;2022-08-01T15:50:02;28.29;62.86
66053;HTU21D;52833;45.112;39.556;2022-08-01T15:52:30;28.24;63.63
66053;HTU21D;52833;45.112;39.556;2022-08-01T15:54:58;28.16;63.74
66053;HTU21D;52833;45.112;39.556;2022-08-01T15:57:24;28.12;63.69
66053;HTU21D;52833;45.112;39.556;2022-08-01T15:59:51;28.08;63.82
66053;HTU21D;52833;45.112;39.556;2022-08-01T16:02:17;28.05;63.96
66053;HTU21D;52833;45.112;39.556;2022-08-01T16:04:44;28.02;64.07
66053;HTU21D;52833;45.112;39.556;2022-08-01T16:07:10;27.99;64.10
66053;HTU21D;52833;45.112;39.556;2022-08-01T16:09:38;27.98;64.23
66053;HTU21D;52833;45.112;39.556;2022-08-01T16:12:07;27.98;64.35
66053;HTU21D;52833;45.112;39.556;2022-08-01T16:14:34;27.98;64.14
66053;HTU21D;52833;45.112;39.556;2022-08-01T16:17:01;27.98;63.97
66053;HTU21D;52833;45.112;39.556;2022-08-01T16:19:28;27.97;63.92
66053;HTU21D;52833;45.112;39.556;2022-08-01T16:21:54;27.95;63.77
66053;HTU21D;52833;45.112;39.556;2022-08-01T16:24:21;27.90;63.70
66053;HTU21D;52833;45.112;39.556;2022-08-01T16:26:48;27.84;63.60
66053;HTU21D;52833;45.112;39.556;2022-08-01T16:29:15;27.74;63.64
66053;HTU21D;52833;45.112;39.556;2022-08-01T16:31:42;27.67;63.53
66053;HTU21D;52833;45.112;39.556;2022-08-01T16:34:08;27.59;63.40
66053;HTU21D;52833;45.112;39.556;2022-08-01T16:36:35;27.54;63.25
66053;HTU21D;52833;45.112;39.556;2022-08-01T16:39:02;27.51;63.15
66053;HTU21D;52833;45.112;39.556;2022-08-01T16:41:30;27.46;63.03
66053;HTU21D;52833;45.112;39.556;2022-08-01T16:43:57;27.46;62.88
66053;HTU21D;52833;45.112;39.556;2022-08-01T16:46:24;27.44;62.71
66053;HTU21D;52833;45.112;39.556;2022-08-01T16:48:52;27.43;62.53
66053;HTU21D;52833;45.112;39.556;2022-08-01T16:51:19;27.42;62.36
66053;HTU21D;52833;45.112;39.556;2022-08-01T16:53:46;27.40;62.24
66053;HTU21D;52833;45.112;39.556;2022-08-01T16:56:12;27.37;62.34
66053;HTU21D;52833;45.112;39.556;2022-08-01T16:58:39;27.34;62.50
66053;HTU21D;52833;45.112;39.556;2022-08-01T17:01:06;27.28;62.63
66053;HTU21D;52833;45.112;39.556;2022-08-01T17:03:32;27.17;62.98
66053;HTU21D;52833;45.112;39.556;2022-08-01T17:05:59;27.05;63.37
66053;HTU21D;52833;45.112;39.556;2022-08-01T17:08:26;26.85;63.67
66053;HTU21D;52833;45.112;39.556;2022-08-01T17:10:52;26.67;64.13
66053;HTU21D;52833;45.112;39.556;2022-08-01T17:13:19;26.51;64.67
66053;HTU21D;52833;45.112;39.556;2022-08-01T17:15:49;26.39;65.21
66053;HTU21D;52833;45.112;39.556;2022-08-01T17:18:17;26.26;65.51
66053;HTU21D;52833;45.112;39.556;2022-08-01T17:20:44;26.09;65.85
66053;HTU21D;52833;45.112;39.556;2022-08-01T17:23:13;25.93;66.28
66053;HTU21D;52833;45.112;39.556;2022-08-01T17:25:40;25.77;66.54
66053;HTU21D;52833;45.112;39.556;2022-08-01T17:28:07;25.59;66.75
66053;HTU21D;52833;45.112;39.556;2022-08-01T17:30:33;25.44;67.04
66053;HTU21D;52833;45.112;39.556;2022-08-01T17:33:00;25.28;67.60
66053;HTU21D;52833;45.112;39.556;2022-08-01T17:35:27;25.14;68.10
66053;HTU21D;52833;45.112;39.556;2022-08-01T17:37:53;25.02;68.42
66053;HTU21D;52833;45.112;39.556;2022-08-01T17:40:20;24.90;68.76
66053;HTU21D;52833;45.112;39.556;2022-08-01T17:42:47;24.79;69.57
66053;HTU21D;52833;45.112;39.556;2022-08-01T17:45:14;24.73;69.92
66053;HTU21D;52833;45.112;39.556;2022-08-01T17:47:41;24.65;70.23
66053;HTU21D;52833;45.112;39.556;2022-08-01T17:50:09;24.60;70.40
66053;HTU21D;52833;45.112;39.556;2022-08-01T17:52:37;24.54;70.53
66053;HTU21D;52833;45.112;39.556;2022-08-01T17:55:05;24.49;70.68
66053;HTU21D;52833;45.112;39.556;2022-08-01T17:57:32;24.44;70.90
66053;HTU21D;52833;45.112;39.556;2022-08-01T17:59:58;24.40;71.06
66053;HTU21D;52833;45.112;39.556;2022-08-01T18:02:25;24.34;71.25
66053;HTU21D;52833;45.112;39.556;2022-08-01T18:04:52;24.29;71.35
66053;HTU21D;52833;45.112;39.556;2022-08-01T18:07:20;24.25;71.55
66053;HTU21D;52833;45.112;39.556;2022-08-01T18:09:47;24.23;71.67
66053;HTU21D;52833;45.112;39.556;2022-08-01T18:12:14;24.19;71.84
66053;HTU21D;52833;45.112;39.556;2022-08-01T18:14:42;24.17;71.96
66053;HTU21D;52833;45.112;39.556;2022-08-01T18:17:09;24.16;72.03
66053;HTU21D;52833;45.112;39.556;2022-08-01T18:19:36;24.14;72.16
66053;HTU21D;52833;45.112;39.556;2022-08-01T18:22:04;24.12;72.35
66053;HTU21D;52833;45.112;39.556;2022-08-01T18:24:31;24.10;72.51
66053;HTU21D;52833;45.112;39.556;2022-08-01T18:26:58;24.09;72.67
66053;HTU21D;52833;45.112;39.556;2022-08-01T18:29:25;24.08;72.84
66053;HTU21D;52833;45.112;39.556;2022-08-01T18:31:51;24.08;72.99
66053;HTU21D;52833;45.112;39.556;2022-08-01T18:34:20;24.08;72.98
66053;HTU21D;52833;45.112;39.556;2022-08-01T18:36:47;24.05;73.12
66053;HTU21D;52833;45.112;39.556;2022-08-01T18:39:14;24.05;73.19
66053;HTU21D;52833;45.112;39.556;2022-08-01T18:41:41;24.05;73.44
66053;HTU21D;52833;45.112;39.556;2022-08-01T18:44:07;24.06;73.65
66053;HTU21D;52833;45.112;39.556;2022-08-01T18:46:38;24.03;73.73
66053;HTU21D;52833;45.112;39.556;2022-08-01T18:49:09;24.01;73.96
66053;HTU21D;52833;45.112;39.556;2022-08-01T18:51:37;24.00;74.09
66053;HTU21D;52833;45.112;39.556;2022-08-01T18:54:04;23.96;74.18
66053;HTU21D;52833;45.112;39.556;2022-08-01T18:56:30;23.94;74.29
66053;HTU21D;52833;45.112;39.556;2022-08-01T18:58:56;23.91;74.41
66053;HTU21D;52833;45.112;39.556;2022-08-01T19:01:23;23.87;74.49
66053;HTU21D;52833;45.112;39.556;2022-08-01T19:03:49;23.85;74.52
66053;HTU21D;52833;45.112;39.556;2022-08-01T19:06:16;23.82;74.57
66053;HTU21D;52833;45.112;39.556;2022-08-01T19:08:43;23.79;74.60
66053;HTU21D;52833;45.112;39.556;2022-08-01T19:11:11;23.75;74.72
66053;HTU21D;52833;45.112;39.556;2022-08-01T19:13:38;23.71;74.87
66053;HTU21D;52833;45.112;39.556;2022-08-01T19:16:05;23.67;74.99
66053;HTU21D;52833;45.112;39.556;2022-08-01T19:18:31;23.62;75.04
66053;HTU21D;52833;45.112;39.556;2022-08-01T19:20:59;23.59;75.15
66053;HTU21D;52833;45.112;39.556;2022-08-01T19:23:28;23.55;75.24
66053;HTU21D;52833;45.112;39.556;2022-08-01T19:26:15;23.49;75.14
66053;HTU21D;52833;45.112;39.556;2022-08-01T19:28:44;23.44;75.17
66053;HTU21D;52833;45.112;39.556;2022-08-01T19:31:13;23.40;75.20
66053;HTU21D;52833;45.112;39.556;2022-08-01T19:33:41;23.35;75.24
66053;HTU21D;52833;45.112;39.556;2022-08-01T19:36:13;23.29;75.43
66053;HTU21D;52833;45.112;39.556;2022-08-01T19:38:41;23.25;75.49
66053;HTU21D;52833;45.112;39.556;2022-08-01T19:41:11;23.22;75.68
66053;HTU21D;52833;45.112;39.556;2022-08-01T19:43:40;23.18;75.66
66053;HTU21D;52833;45.112;39.556;2022-08-01T19:46:07;23.13;75.80
66053;HTU21D;52833;45.112;39.556;2022-08-01T19:48:40;23.08;75.91
66053;HTU21D;52833;45.112;39.556;2022-08-01T19:51:13;23.03;75.94
66053;HTU21D;52833;45.112;39.556;2022-08-01T19:53:48;22.99;76.04
66053;HTU21D;52833;45.112;39.556;2022-08-01T19:56:17;22.94;76.03
66053;HTU21D;52833;45.112;39.556;2022-08-01T19:58:49;22.88;76.12
66053;HTU21D;52833;45.112;39.556;2022-08-01T20:01:19;22.83;76.15
66053;HTU21D;52833;45.112;39.556;2022-08-01T20:03:48;22.78;76.18
66053;HTU21D;52833;45.112;39.556;2022-08-01T20:06:15;22.73;76.21
66053;HTU21D;52833;45.112;39.556;2022-08-01T20:08:42;22.66;76.29
66053;HTU21D;52833;45.112;39.556;2022-08-01T20:11:09;22.63;76.35
66053;HTU21D;52833;45.112;39.556;2022-08-01T20:13:38;22.57;76.44
66053;HTU21D;52833;45.112;39.556;2022-08-01T20:16:06;22.53;76.65
66053;HTU21D;52833;45.112;39.556;2022-08-01T20:18:33;22.49;76.86
66053;HTU21D;52833;45.112;39.556;2022-08-01T20:21:01;22.48;77.25
66053;HTU21D;52833;45.112;39.556;2022-08-01T20:23:30;22.48;77.53
66053;HTU21D;52833;45.112;39.556;2022-08-01T20:25:57;22.48;77.77
66053;HTU21D;52833;45.112;39.556;2022-08-01T20:28:25;22.50;78.11
66053;HTU21D;52833;45.112;39.556;2022-08-01T20:30:59;22.53;78.37
66053;HTU21D;52833;45.112;39.556;2022-08-01T20:33:27;22.57;78.48
66053;HTU21D;52833;45.112;39.556;2022-08-01T20:35:54;22.58;78.63
66053;HTU21D;52833;45.112;39.556;2022-08-01T20:38:23;22.61;78.77